sensor_id;sensor_type;location;lat;lon;timestamp;temperature;humidity
20066;DHT22;10193;48.884;9.182;2023-05-16T00:00:00;14.90;79.70
20066;DHT22;10193;48.884;9.182;2023-05-16T00:02:31;14.80;79.70
20066;DHT22;10193;48.884;9.182;2023-05-16T00:04:57;14.80;79.90
20066;DHT22;10193;48.884;9.182;2023-05-16T00:07:24;14.80;80.00
20066;DHT22;10193;48.884;9.182;2023-05-16T00:09:52;14.80;80.10
20066;DHT22;10193;48.884;9.182;2023-05-16T00:12:19;14.80;80.20
20066;DHT22;10193;48.884;9.182;2023-05-16T00:14:47;14.80;80.30
20066;DHT22;10193;48.884;9.182;2023-05-16T00:17:14;14.80;80.30
20066;DHT22;10193;48.884;9.182;2023-05-16T00:19:42;14.80;80.30
20066;DHT22;10193;48.884;9.182;2023-05-16T00:22:09;14.80;80.30
20066;DHT22;10193;48.884;9.182;2023-05-16T00:24:36;14.80;80.20
20066;DHT22;10193;48.884;9.182;2023-05-16T00:27:04;14.80;80.20
20066;DHT22;10193;48.884;9.182;2023-05-16T00:29:31;14.80;80.20
20066;DHT22;10193;48.884;9.182;2023-05-16T00:31:58;14.80;80.10
20066;DHT22;10193;48.884;9.182;2023-05-16T00:34:24;14.70;80.00
20066;DHT22;10193;48.884;9.182;2023-05-16T00:36:51;14.70;80.10
20066;DHT22;10193;48.884;9.182;2023-05-16T00:39:18;14.70;80.10
20066;DHT22;10193;48.884;9.182;2023-05-16T00:41:45;14.70;80.20
20066;DHT22;10193;48.884;9.182;2023-05-16T00:44:13;14.70;80.20
20066;DHT22;10193;48.884;9.182;2023-05-16T00:46:39;14.60;80.00
20066;DHT22;10193;48.884;9.182;2023-05-16T00:49:07;14.60;80.10
20066;DHT22;10193;48.884;9.182;2023-05-16T00:51:35;14.60;80.10
20066;DHT22;10193;48.884;9.182;2023-05-16T00:54:04;14.50;80.10
20066;DHT22;10193;48.884;9.182;2023-05-16T00:56:31;14.50;80.20
20066;DHT22;10193;48.884;9.182;2023-05-16T00:58:58;14.50;81.10
20066;DHT22;10193;48.884;9.182;2023-05-16T01:01:27;14.50;80.40
20066;DHT22;10193;48.884;9.182;2023-05-16T01:03:54;14.40;80.50
20066;DHT22;10193;48.884;9.182;2023-05-16T01:06:21;14.40;80.60
20066;DHT22;10193;48.884;9.182;2023-05-16T01:08:48;14.40;80.70
20066;DHT22;10193;48.884;9.182;2023-05-16T01:11:21;14.30;80.80
20066;DHT22;10193;48.884;9.182;2023-05-16T01:13:57;14.30;80.80
20066;DHT22;10193;48.884;9.182;2023-05-16T01:16:37;14.30;80.90
20066;DHT22;10193;48.884;9.182;2023-05-16T01:19:13;14.30;81.00
20066;DHT22;10193;48.884;9.182;2023-05-16T01:21:48;14.20;81.00
20066;DHT22;10193;48.884;9.182;2023-05-16T01:24:22;14.20;81.10
20066;DHT22;10193;48.884;9.182;2023-05-16T01:26:55;14.20;81.20
20066;DHT22;10193;48.884;9.182;2023-05-16T01:29:22;14.20;81.30
20066;DHT22;10193;48.884;9.182;2023-05-16T01:31:49;14.20;81.30
20066;DHT22;10193;48.884;9.182;2023-05-16T01:34:15;14.20;81.30
20066;DHT22;10193;48.884;9.182;2023-05-16T01:39:35;14.10;81.30
20066;DHT22;10193;48.884;9.182;2023-05-16T01:42:08;14.10;81.30
20066;DHT22;10193;48.884;9.182;2023-05-16T01:44:42;14.10;81.30
20066;DHT22;10193;48.884;9.182;2023-05-16T01:47:12;14.10;81.50
20066;DHT22;10193;48.884;9.182;2023-05-16T01:49:45;14.00;81.40
20066;DHT22;10193;48.884;9.182;2023-05-16T01:52:18;14.00;81.50
20066;DHT22;10193;48.884;9.182;2023-05-16T01:54:46;14.00;81.60
20066;DHT22;10193;48.884;9.182;2023-05-16T01:57:15;14.00;81.60
20066;DHT22;10193;48.884;9.182;2023-05-16T01:59:43;14.00;81.80
20066;DHT22;10193;48.884;9.182;2023-05-16T02:02:10;13.90;81.80
20066;DHT22;10193;48.884;9.182;2023-05-16T02:04:37;13.90;81.80
20066;DHT22;10193;48.884;9.182;2023-05-16T02:07:04;13.90;81.90
20066;DHT22;10193;48.884;9.182;2023-05-16T02:09:31;13.90;81.90
20066;DHT22;10193;48.884;9.182;2023-05-16T02:11:58;13.90;82.00
20066;DHT22;10193;48.884;9.182;2023-05-16T02:14:28;13.90;82.90
20066;DHT22;10193;48.884;9.182;2023-05-16T02:16:54;13.80;82.10
20066;DHT22;10193;48.884;9.182;2023-05-16T02:19:21;13.80;82.20
20066;DHT22;10193;48.884;9.182;2023-05-16T02:21:48;13.80;82.40
20066;DHT22;10193;48.884;9.182;2023-05-16T02:24:15;13.80;82.60
20066;DHT22;10193;48.884;9.182;2023-05-16T02:26:42;13.80;82.70
20066;DHT22;10193;48.884;9.182;2023-05-16T02:29:08;13.80;82.70
20066;DHT22;10193;48.884;9.182;2023-05-16T02:31:36;13.80;82.80
20066;DHT22;10193;48.884;9.182;2023-05-16T02:34:03;13.80;82.90
20066;DHT22;10193;48.884;9.182;2023-05-16T02:36:30;13.80;82.90
20066;DHT22;10193;48.884;9.182;2023-05-16T02:38:58;13.80;82.90
20066;DHT22;10193;48.884;9.182;2023-05-16T02:41:25;13.70;82.80
20066;DHT22;10193;48.884;9.182;2023-05-16T02:43:52;13.70;82.80
20066;DHT22;10193;48.884;9.182;2023-05-16T02:46:22;13.70;82.90
20066;DHT22;10193;48.884;9.182;2023-05-16T02:48:51;13.70;83.00
20066;DHT22;10193;48.884;9.182;2023-05-16T02:51:19;13.70;83.70
20066;DHT22;10193;48.884;9.182;2023-05-16T02:53:46;13.70;83.80
20066;DHT22;10193;48.884;9.182;2023-05-16T02:56:12;13.70;83.10
20066;DHT22;10193;48.884;9.182;2023-05-16T02:58:39;13.70;83.10
20066;DHT22;10193;48.884;9.182;2023-05-16T03:01:06;13.70;83.30
20066;DHT22;10193;48.884;9.182;2023-05-16T03:03:33;13.70;83.30
20066;DHT22;10193;48.884;9.182;2023-05-16T03:06:02;13.70;83.50
20066;DHT22;10193;48.884;9.182;2023-05-16T03:08:28;13.70;83.50
20066;DHT22;10193;48.884;9.182;2023-05-16T03:10:55;13.70;83.60
20066;DHT22;10193;48.884;9.182;2023-05-16T03:13:22;13.70;83.60
20066;DHT22;10193;48.884;9.182;2023-05-16T03:15:48;13.70;83.70
20066;DHT22;10193;48.884;9.182;2023-05-16T03:18:15;13.70;83.80
20066;DHT22;10193;48.884;9.182;2023-05-16T03:20:42;13.70;83.90
20066;DHT22;10193;48.884;9.182;2023-05-16T03:23:10;13.70;84.00
20066;DHT22;10193;48.884;9.182;2023-05-16T03:25:37;13.70;83.90
20066;DHT22;10193;48.884;9.182;2023-05-16T03:28:04;13.70;84.00
20066;DHT22;10193;48.884;9.182;2023-05-16T03:30:31;13.70;84.00
20066;DHT22;10193;48.884;9.182;2023-05-16T03:32:58;13.70;84.00
20066;DHT22;10193;48.884;9.182;2023-05-16T03:35:25;13.70;84.10
20066;DHT22;10193;48.884;9.182;2023-05-16T03:37:52;13.70;84.20
20066;DHT22;10193;48.884;9.182;2023-05-16T03:40:21;13.70;84.20
20066;DHT22;10193;48.884;9.182;2023-05-16T03:42:47;13.80;84.30
20066;DHT22;10193;48.884;9.182;2023-05-16T03:45:14;13.80;84.30
20066;DHT22;10193;48.884;9.182;2023-05-16T03:47:41;13.80;84.50
20066;DHT22;10193;48.884;9.182;2023-05-16T03:50:08;13.80;84.50
20066;DHT22;10193;48.884;9.182;2023-05-16T03:52:35;13.80;84.50
20066;DHT22;10193;48.884;9.182;2023-05-16T03:55:02;13.80;84.60
20066;DHT22;10193;48.884;9.182;2023-05-16T03:57:32;13.80;84.60
20066;DHT22;10193;48.884;9.182;2023-05-16T03:59:59;13.80;84.60
20066;DHT22;10193;48.884;9.182;2023-05-16T04:02:26;13.80;84.70
20066;DHT22;10193;48.884;9.182;2023-05-16T04:04:52;13.80;84.60
20066;DHT22;10193;48.884;9.182;2023-05-16T04:07:19;13.80;84.60
20066;DHT22;10193;48.884;9.182;2023-05-16T04:09:46;13.80;84.70
20066;DHT22;10193;48.884;9.182;2023-05-16T04:12:13;13.90;84.80
20066;DHT22;10193;48.884;9.182;2023-05-16T04:14:41;13.90;84.90
20066;DHT22;10193;48.884;9.182;2023-05-16T04:17:07;13.90;84.90
20066;DHT22;10193;48.884;9.182;2023-05-16T04:19:35;13.90;85.00
20066;DHT22;10193;48.884;9.182;2023-05-16T04:22:01;13.90;85.10
20066;DHT22;10193;48.884;9.182;2023-05-16T04:24:28;13.90;85.10
20066;DHT22;10193;48.884;9.182;2023-05-16T04:26:55;13.90;85.20
20066;DHT22;10193;48.884;9.182;2023-05-16T04:29:21;13.90;85.20
20066;DHT22;10193;48.884;9.182;2023-05-16T04:31:49;14.00;85.40
20066;DHT22;10193;48.884;9.182;2023-05-16T04:34:16;14.00;85.40
20066;DHT22;10193;48.884;9.182;2023-05-16T04:36:43;14.00;85.50
20066;DHT22;10193;48.884;9.182;2023-05-16T04:39:10;14.10;85.80
20066;DHT22;10193;48.884;9.182;2023-05-16T04:41:36;14.10;86.00
20066;DHT22;10193;48.884;9.182;2023-05-16T04:44:03;14.10;86.10
20066;DHT22;10193;48.884;9.182;2023-05-16T04:46:30;14.20;86.10
20066;DHT22;10193;48.884;9.182;2023-05-16T04:48:58;14.20;86.10
20066;DHT22;10193;48.884;9.182;2023-05-16T04:51:25;14.30;86.00
20066;DHT22;10193;48.884;9.182;2023-05-16T04:53:52;14.30;86.00
20066;DHT22;10193;48.884;9.182;2023-05-16T04:56:18;14.30;86.00
20066;DHT22;10193;48.884;9.182;2023-05-16T04:58:45;14.40;86.00
20066;DHT22;10193;48.884;9.182;2023-05-16T05:01:12;14.40;85.80
20066;DHT22;10193;48.884;9.182;2023-05-16T05:03:38;14.50;86.00
20066;DHT22;10193;48.884;9.182;2023-05-16T05:06:06;14.50;86.00
20066;DHT22;10193;48.884;9.182;2023-05-16T05:08:33;14.50;85.90
20066;DHT22;10193;48.884;9.182;2023-05-16T05:11:00;14.50;85.60
20066;DHT22;10193;48.884;9.182;2023-05-16T05:13:27;14.60;85.60
20066;DHT22;10193;48.884;9.182;2023-05-16T05:15:54;14.60;85.50
20066;DHT22;10193;48.884;9.182;2023-05-16T05:18:20;14.60;85.30
20066;DHT22;10193;48.884;9.182;2023-05-16T05:20:47;14.60;85.10
20066;DHT22;10193;48.884;9.182;2023-05-16T05:23:15;14.70;85.30
20066;DHT22;10193;48.884;9.182;2023-05-16T05:25:42;14.70;85.20
20066;DHT22;10193;48.884;9.182;2023-05-16T05:28:09;14.70;85.10
20066;DHT22;10193;48.884;9.182;2023-05-16T05:30:35;14.70;84.90
20066;DHT22;10193;48.884;9.182;2023-05-16T05:33:02;14.70;84.80
20066;DHT22;10193;48.884;9.182;2023-05-16T05:35:29;14.70;85.40
20066;DHT22;10193;48.884;9.182;2023-05-16T05:37:56;14.70;84.80
20066;DHT22;10193;48.884;9.182;2023-05-16T05:40:24;14.70;84.90
20066;DHT22;10193;48.884;9.182;2023-05-16T05:42:50;14.70;85.00
20066;DHT22;10193;48.884;9.182;2023-05-16T05:45:17;14.70;85.10
20066;DHT22;10193;48.884;9.182;2023-05-16T05:47:44;14.70;85.10
20066;DHT22;10193;48.884;9.182;2023-05-16T05:50:11;14.70;85.00
20066;DHT22;10193;48.884;9.182;2023-05-16T05:52:39;14.70;85.10
20066;DHT22;10193;48.884;9.182;2023-05-16T05:55:06;14.70;85.10
20066;DHT22;10193;48.884;9.182;2023-05-16T05:57:34;14.80;85.50
20066;DHT22;10193;48.884;9.182;2023-05-16T06:00:01;14.80;85.60
20066;DHT22;10193;48.884;9.182;2023-05-16T06:02:27;14.80;85.50
20066;DHT22;10193;48.884;9.182;2023-05-16T06:04:54;14.80;85.40
20066;DHT22;10193;48.884;9.182;2023-05-16T06:07:21;14.80;85.40
20066;DHT22;10193;48.884;9.182;2023-05-16T06:09:47;14.90;85.30
20066;DHT22;10193;48.884;9.182;2023-05-16T06:12:14;14.90;85.00
20066;DHT22;10193;48.884;9.182;2023-05-16T06:14:43;14.90;85.10
20066;DHT22;10193;48.884;9.182;2023-05-16T06:17:10;14.90;85.30
20066;DHT22;10193;48.884;9.182;2023-05-16T06:19:36;14.90;85.40
20066;DHT22;10193;48.884;9.182;2023-05-16T06:22:03;15.00;85.60
20066;DHT22;10193;48.884;9.182;2023-05-16T06:24:30;15.00;85.70
20066;DHT22;10193;48.884;9.182;2023-05-16T06:26:57;15.00;85.60
20066;DHT22;10193;48.884;9.182;2023-05-16T06:29:23;15.00;85.50
20066;DHT22;10193;48.884;9.182;2023-05-16T06:31:51;15.10;85.60
20066;DHT22;10193;48.884;9.182;2023-05-16T06:34:18;15.10;85.30
20066;DHT22;10193;48.884;9.182;2023-05-16T06:36:48;15.10;85.40
20066;DHT22;10193;48.884;9.182;2023-05-16T06:39:14;15.10;85.30
20066;DHT22;10193;48.884;9.182;2023-05-16T06:41:44;15.20;85.30
20066;DHT22;10193;48.884;9.182;2023-05-16T06:44:11;15.20;85.10
20066;DHT22;10193;48.884;9.182;2023-05-16T06:46:37;15.20;85.30
20066;DHT22;10193;48.884;9.182;2023-05-16T06:49:05;15.20;85.00
20066;DHT22;10193;48.884;9.182;2023-05-16T06:51:32;15.20;84.90
20066;DHT22;10193;48.884;9.182;2023-05-16T06:53:58;15.20;84.40
20066;DHT22;10193;48.884;9.182;2023-05-16T06:56:25;15.20;84.50
20066;DHT22;10193;48.884;9.182;2023-05-16T06:58:53;15.20;84.50
20066;DHT22;10193;48.884;9.182;2023-05-16T07:01:19;15.20;84.70
20066;DHT22;10193;48.884;9.182;2023-05-16T07:03:46;15.20;84.60
20066;DHT22;10193;48.884;9.182;2023-05-16T07:06:14;15.20;84.40
20066;DHT22;10193;48.884;9.182;2023-05-16T07:08:40;15.20;84.30
20066;DHT22;10193;48.884;9.182;2023-05-16T07:11:07;15.20;83.80
20066;DHT22;10193;48.884;9.182;2023-05-16T07:13:35;15.20;83.30
20066;DHT22;10193;48.884;9.182;2023-05-16T07:16:02;15.20;83.30
20066;DHT22;10193;48.884;9.182;2023-05-16T07:18:29;15.20;83.10
20066;DHT22;10193;48.884;9.182;2023-05-16T07:20:56;15.10;82.40
20066;DHT22;10193;48.884;9.182;2023-05-16T07:23:24;15.00;82.50
20066;DHT22;10193;48.884;9.182;2023-05-16T07:25:51;15.00;82.50
20066;DHT22;10193;48.884;9.182;2023-05-16T07:28:18;15.00;82.80
20066;DHT22;10193;48.884;9.182;2023-05-16T07:30:44;15.00;83.10
20066;DHT22;10193;48.884;9.182;2023-05-16T07:33:11;14.90;83.00
20066;DHT22;10193;48.884;9.182;2023-05-16T07:35:38;14.90;83.20
20066;DHT22;10193;48.884;9.182;2023-05-16T07:38:04;14.80;83.60
20066;DHT22;10193;48.884;9.182;2023-05-16T07:40:32;14.90;83.90
20066;DHT22;10193;48.884;9.182;2023-05-16T07:42:59;14.90;84.00
20066;DHT22;10193;48.884;9.182;2023-05-16T07:45:27;14.90;84.90
20066;DHT22;10193;48.884;9.182;2023-05-16T07:47:53;15.00;84.90
20066;DHT22;10193;48.884;9.182;2023-05-16T07:50:20;15.00;85.30
20066;DHT22;10193;48.884;9.182;2023-05-16T07:52:47;15.10;85.50
20066;DHT22;10193;48.884;9.182;2023-05-16T07:55:14;15.20;85.70
20066;DHT22;10193;48.884;9.182;2023-05-16T07:57:42;15.20;85.80
20066;DHT22;10193;48.884;9.182;2023-05-16T08:00:10;15.30;85.20
20066;DHT22;10193;48.884;9.182;2023-05-16T08:02:37;15.40;85.50
20066;DHT22;10193;48.884;9.182;2023-05-16T08:05:04;15.40;85.60
20066;DHT22;10193;48.884;9.182;2023-05-16T08:07:31;15.50;85.10
20066;DHT22;10193;48.884;9.182;2023-05-16T08:09:58;15.60;85.00
20066;DHT22;10193;48.884;9.182;2023-05-16T08:12:25;15.60;84.80
20066;DHT22;10193;48.884;9.182;2023-05-16T08:14:53;15.60;84.30
20066;DHT22;10193;48.884;9.182;2023-05-16T08:17:20;15.70;83.90
20066;DHT22;10193;48.884;9.182;2023-05-16T08:19:47;15.70;83.60
20066;DHT22;10193;48.884;9.182;2023-05-16T08:22:14;15.70;83.30
20066;DHT22;10193;48.884;9.182;2023-05-16T08:24:40;15.70;82.80
20066;DHT22;10193;48.884;9.182;2023-05-16T08:27:07;15.70;82.30
20066;DHT22;10193;48.884;9.182;2023-05-16T08:29:34;15.60;81.40
20066;DHT22;10193;48.884;9.182;2023-05-16T08:32:02;15.60;82.00
20066;DHT22;10193;48.884;9.182;2023-05-16T08:34:30;15.60;81.80
20066;DHT22;10193;48.884;9.182;2023-05-16T08:36:57;15.50;81.80
20066;DHT22;10193;48.884;9.182;2023-05-16T08:39:23;15.50;81.50
20066;DHT22;10193;48.884;9.182;2023-05-16T08:41:50;15.40;81.50
20066;DHT22;10193;48.884;9.182;2023-05-16T08:44:17;15.40;81.30
20066;DHT22;10193;48.884;9.182;2023-05-16T08:46:50;15.30;81.30
20066;DHT22;10193;48.884;9.182;2023-05-16T08:49:18;15.30;81.80
20066;DHT22;10193;48.884;9.182;2023-05-16T08:51:46;15.20;82.20
20066;DHT22;10193;48.884;9.182;2023-05-16T08:54:14;15.20;82.80
20066;DHT22;10193;48.884;9.182;2023-05-16T08:56:42;15.20;82.80
20066;DHT22;10193;48.884;9.182;2023-05-16T08:59:09;15.20;83.10
20066;DHT22;10193;48.884;9.182;2023-05-16T09:01:36;15.20;83.10
20066;DHT22;10193;48.884;9.182;2023-05-16T09:04:06;15.20;83.10
20066;DHT22;10193;48.884;9.182;2023-05-16T09:06:35;15.20;83.00
20066;DHT22;10193;48.884;9.182;2023-05-16T09:09:02;15.20;82.80
20066;DHT22;10193;48.884;9.182;2023-05-16T09:11:32;15.20;83.00
20066;DHT22;10193;48.884;9.182;2023-05-16T09:13:59;15.20;83.20
20066;DHT22;10193;48.884;9.182;2023-05-16T09:16:25;15.20;83.50
20066;DHT22;10193;48.884;9.182;2023-05-16T09:18:53;15.20;83.70
20066;DHT22;10193;48.884;9.182;2023-05-16T09:21:22;15.30;84.20
20066;DHT22;10193;48.884;9.182;2023-05-16T09:23:50;15.30;84.30
20066;DHT22;10193;48.884;9.182;2023-05-16T09:26:18;15.30;84.30
20066;DHT22;10193;48.884;9.182;2023-05-16T09:28:46;15.30;84.80
20066;DHT22;10193;48.884;9.182;2023-05-16T09:31:19;15.40;85.00
20066;DHT22;10193;48.884;9.182;2023-05-16T09:33:47;15.40;84.80
20066;DHT22;10193;48.884;9.182;2023-05-16T09:36:14;15.50;84.90
20066;DHT22;10193;48.884;9.182;2023-05-16T09:38:41;15.50;84.50
20066;DHT22;10193;48.884;9.182;2023-05-16T09:41:10;15.60;84.00
20066;DHT22;10193;48.884;9.182;2023-05-16T09:43:37;15.60;83.80
20066;DHT22;10193;48.884;9.182;2023-05-16T09:46:04;15.60;83.60
20066;DHT22;10193;48.884;9.182;2023-05-16T09:48:31;15.60;83.70
20066;DHT22;10193;48.884;9.182;2023-05-16T09:50:58;15.60;83.80
20066;DHT22;10193;48.884;9.182;2023-05-16T09:53:30;15.60;83.70
20066;DHT22;10193;48.884;9.182;2023-05-16T09:55:59;15.60;83.70
20066;DHT22;10193;48.884;9.182;2023-05-16T09:58:29;15.60;84.00
20066;DHT22;10193;48.884;9.182;2023-05-16T10:00:56;15.70;84.40
20066;DHT22;10193;48.884;9.182;2023-05-16T10:03:24;15.70;84.40
20066;DHT22;10193;48.884;9.182;2023-05-16T10:05:51;15.80;85.00
20066;DHT22;10193;48.884;9.182;2023-05-16T10:08:19;15.90;85.40
20066;DHT22;10193;48.884;9.182;2023-05-16T10:10:49;15.90;85.30
20066;DHT22;10193;48.884;9.182;2023-05-16T10:13:17;16.00;85.40
20066;DHT22;10193;48.884;9.182;2023-05-16T10:15:46;16.10;85.20
20066;DHT22;10193;48.884;9.182;2023-05-16T10:18:13;16.20;84.70
20066;DHT22;10193;48.884;9.182;2023-05-16T10:20:44;16.20;84.00
20066;DHT22;10193;48.884;9.182;2023-05-16T10:23:16;16.30;83.20
20066;DHT22;10193;48.884;9.182;2023-05-16T10:25:44;16.30;82.70
20066;DHT22;10193;48.884;9.182;2023-05-16T10:28:11;16.30;82.30
20066;DHT22;10193;48.884;9.182;2023-05-16T10:30:40;16.30;82.20
20066;DHT22;10193;48.884;9.182;2023-05-16T10:33:11;16.30;81.90
20066;DHT22;10193;48.884;9.182;2023-05-16T10:35:38;16.30;81.60
20066;DHT22;10193;48.884;9.182;2023-05-16T10:38:06;16.20;81.20
20066;DHT22;10193;48.884;9.182;2023-05-16T10:40:34;16.20;81.20
20066;DHT22;10193;48.884;9.182;2023-05-16T10:43:03;16.20;81.20
20066;DHT22;10193;48.884;9.182;2023-05-16T10:45:30;16.10;81.20
20066;DHT22;10193;48.884;9.182;2023-05-16T10:47:59;16.10;81.00
20066;DHT22;10193;48.884;9.182;2023-05-16T10:50:35;16.00;80.90
20066;DHT22;10193;48.884;9.182;2023-05-16T10:53:17;15.90;80.40
20066;DHT22;10193;48.884;9.182;2023-05-16T10:55:48;15.90;80.10
20066;DHT22;10193;48.884;9.182;2023-05-16T10:58:21;15.80;80.60
20066;DHT22;10193;48.884;9.182;2023-05-16T11:00:48;15.80;80.70
20066;DHT22;10193;48.884;9.182;2023-05-16T11:03:21;15.80;80.10
20066;DHT22;10193;48.884;9.182;2023-05-16T11:05:52;15.70;78.90
20066;DHT22;10193;48.884;9.182;2023-05-16T11:08:19;15.50;78.30
20066;DHT22;10193;48.884;9.182;2023-05-16T11:10:46;15.40;77.90
20066;DHT22;10193;48.884;9.182;2023-05-16T11:13:13;15.30;78.10
20066;DHT22;10193;48.884;9.182;2023-05-16T11:15:44;15.20;78.30
20066;DHT22;10193;48.884;9.182;2023-05-16T11:18:14;15.00;78.60
20066;DHT22;10193;48.884;9.182;2023-05-16T11:20:41;14.90;78.90
20066;DHT22;10193;48.884;9.182;2023-05-16T11:23:23;14.80;79.00
20066;DHT22;10193;48.884;9.182;2023-05-16T11:25:54;14.70;79.40
20066;DHT22;10193;48.884;9.182;2023-05-16T11:28:23;14.60;80.10
20066;DHT22;10193;48.884;9.182;2023-05-16T11:30:52;14.60;80.90
20066;DHT22;10193;48.884;9.182;2023-05-16T11:33:21;14.60;80.90
20066;DHT22;10193;48.884;9.182;2023-05-16T11:36:01;14.50;81.80
20066;DHT22;10193;48.884;9.182;2023-05-16T11:38:30;14.50;81.20
20066;DHT22;10193;48.884;9.182;2023-05-16T11:41:04;14.50;82.00
20066;DHT22;10193;48.884;9.182;2023-05-16T11:43:37;14.60;82.30
20066;DHT22;10193;48.884;9.182;2023-05-16T11:46:04;14.60;82.10
20066;DHT22;10193;48.884;9.182;2023-05-16T11:48:32;14.60;82.40
20066;DHT22;10193;48.884;9.182;2023-05-16T11:50:59;14.60;82.40
20066;DHT22;10193;48.884;9.182;2023-05-16T11:53:26;14.60;82.40
20066;DHT22;10193;48.884;9.182;2023-05-16T11:55:55;14.70;82.60
20066;DHT22;10193;48.884;9.182;2023-05-16T11:58:24;14.60;82.50
20066;DHT22;10193;48.884;9.182;2023-05-16T12:00:51;14.70;82.80
20066;DHT22;10193;48.884;9.182;2023-05-16T12:03:18;14.70;83.00
20066;DHT22;10193;48.884;9.182;2023-05-16T12:05:49;14.70;83.90
20066;DHT22;10193;48.884;9.182;2023-05-16T12:08:17;14.80;84.40
20066;DHT22;10193;48.884;9.182;2023-05-16T12:10:45;14.90;84.90
20066;DHT22;10193;48.884;9.182;2023-05-16T12:13:13;15.00;84.70
20066;DHT22;10193;48.884;9.182;2023-05-16T12:15:40;15.10;83.90
20066;DHT22;10193;48.884;9.182;2023-05-16T12:18:07;15.20;83.90
20066;DHT22;10193;48.884;9.182;2023-05-16T12:20:34;15.30;83.60
20066;DHT22;10193;48.884;9.182;2023-05-16T12:23:01;15.30;82.80
20066;DHT22;10193;48.884;9.182;2023-05-16T12:25:30;15.40;82.60
20066;DHT22;10193;48.884;9.182;2023-05-16T12:27:58;15.40;82.20
20066;DHT22;10193;48.884;9.182;2023-05-16T12:30:27;15.50;82.50
20066;DHT22;10193;48.884;9.182;2023-05-16T12:32:55;15.50;81.80
20066;DHT22;10193;48.884;9.182;2023-05-16T12:35:22;15.50;81.50
20066;DHT22;10193;48.884;9.182;2023-05-16T12:37:49;15.50;81.60
20066;DHT22;10193;48.884;9.182;2023-05-16T12:40:17;15.50;81.20
20066;DHT22;10193;48.884;9.182;2023-05-16T12:42:45;15.50;80.60
20066;DHT22;10193;48.884;9.182;2023-05-16T12:45:14;15.50;80.00
20066;DHT22;10193;48.884;9.182;2023-05-16T12:47:43;15.50;80.20
20066;DHT22;10193;48.884;9.182;2023-05-16T12:50:11;15.50;80.00
20066;DHT22;10193;48.884;9.182;2023-05-16T12:52:46;15.40;80.30
20066;DHT22;10193;48.884;9.182;2023-05-16T12:55:13;15.40;80.60
20066;DHT22;10193;48.884;9.182;2023-05-16T12:57:41;15.40;81.00
20066;DHT22;10193;48.884;9.182;2023-05-16T13:00:09;15.40;80.70
20066;DHT22;10193;48.884;9.182;2023-05-16T13:02:37;15.40;80.70
20066;DHT22;10193;48.884;9.182;2023-05-16T13:05:05;15.40;80.60
20066;DHT22;10193;48.884;9.182;2023-05-16T13:07:32;15.40;79.60
20066;DHT22;10193;48.884;9.182;2023-05-16T13:09:59;15.40;79.10
20066;DHT22;10193;48.884;9.182;2023-05-16T13:12:26;15.30;79.00
20066;DHT22;10193;48.884;9.182;2023-05-16T13:14:53;15.30;79.20
20066;DHT22;10193;48.884;9.182;2023-05-16T13:17:19;15.30;78.50
20066;DHT22;10193;48.884;9.182;2023-05-16T13:19:46;15.20;78.70
20066;DHT22;10193;48.884;9.182;2023-05-16T13:22:14;15.20;79.00
20066;DHT22;10193;48.884;9.182;2023-05-16T13:24:40;15.10;79.20
20066;DHT22;10193;48.884;9.182;2023-05-16T13:27:07;15.10;79.50
20066;DHT22;10193;48.884;9.182;2023-05-16T13:29:34;15.10;79.70
20066;DHT22;10193;48.884;9.182;2023-05-16T13:32:00;15.10;79.90
20066;DHT22;10193;48.884;9.182;2023-05-16T13:34:27;15.10;79.80
20066;DHT22;10193;48.884;9.182;2023-05-16T13:36:54;15.10;79.10
20066;DHT22;10193;48.884;9.182;2023-05-16T13:39:22;15.10;78.80
20066;DHT22;10193;48.884;9.182;2023-05-16T13:41:49;15.10;79.00
20066;DHT22;10193;48.884;9.182;2023-05-16T13:44:16;15.00;78.50
20066;DHT22;10193;48.884;9.182;2023-05-16T13:46:43;15.00;78.60
20066;DHT22;10193;48.884;9.182;2023-05-16T13:49:09;15.00;78.60
20066;DHT22;10193;48.884;9.182;2023-05-16T13:51:36;15.00;78.90
20066;DHT22;10193;48.884;9.182;2023-05-16T13:54:03;15.00;79.10
20066;DHT22;10193;48.884;9.182;2023-05-16T13:56:31;15.00;79.50
20066;DHT22;10193;48.884;9.182;2023-05-16T13:58:57;15.00;79.50
20066;DHT22;10193;48.884;9.182;2023-05-16T14:01:25;15.00;79.70
20066;DHT22;10193;48.884;9.182;2023-05-16T14:03:52;15.00;80.10
20066;DHT22;10193;48.884;9.182;2023-05-16T14:06:19;15.10;80.20
20066;DHT22;10193;48.884;9.182;2023-05-16T14:08:46;15.10;80.20
20066;DHT22;10193;48.884;9.182;2023-05-16T14:11:13;15.20;79.80
20066;DHT22;10193;48.884;9.182;2023-05-16T14:13:41;15.20;79.70
20066;DHT22;10193;48.884;9.182;2023-05-16T14:16:07;15.20;79.70
20066;DHT22;10193;48.884;9.182;2023-05-16T14:18:34;15.30;79.60
20066;DHT22;10193;48.884;9.182;2023-05-16T14:21:01;15.30;79.60
20066;DHT22;10193;48.884;9.182;2023-05-16T14:23:28;15.30;79.50
20066;DHT22;10193;48.884;9.182;2023-05-16T14:25:54;15.30;79.50
20066;DHT22;10193;48.884;9.182;2023-05-16T14:28:21;15.30;79.70
20066;DHT22;10193;48.884;9.182;2023-05-16T14:30:49;15.30;79.60
20066;DHT22;10193;48.884;9.182;2023-05-16T14:33:15;15.40;79.80
20066;DHT22;10193;48.884;9.182;2023-05-16T14:35:42;15.50;79.70
20066;DHT22;10193;48.884;9.182;2023-05-16T14:38:09;15.50;79.40
20066;DHT22;10193;48.884;9.182;2023-05-16T14:40:35;15.50;79.10
20066;DHT22;10193;48.884;9.182;2023-05-16T14:43:02;15.60;79.00
20066;DHT22;10193;48.884;9.182;2023-05-16T14:45:29;15.70;79.20
20066;DHT22;10193;48.884;9.182;2023-05-16T14:47:57;15.70;78.80
20066;DHT22;10193;48.884;9.182;2023-05-16T14:50:24;15.70;78.30
20066;DHT22;10193;48.884;9.182;2023-05-16T14:52:50;15.70;78.00
20066;DHT22;10193;48.884;9.182;2023-05-16T14:55:19;15.70;77.50
20066;DHT22;10193;48.884;9.182;2023-05-16T14:57:47;15.80;78.30
20066;DHT22;10193;48.884;9.182;2023-05-16T15:00:15;15.80;77.10
20066;DHT22;10193;48.884;9.182;2023-05-16T15:02:42;15.80;77.60
20066;DHT22;10193;48.884;9.182;2023-05-16T15:05:10;15.80;77.80
20066;DHT22;10193;48.884;9.182;2023-05-16T15:07:37;15.90;77.50
20066;DHT22;10193;48.884;9.182;2023-05-16T15:10:05;15.90;77.70
20066;DHT22;10193;48.884;9.182;2023-05-16T15:12:31;15.90;77.20
20066;DHT22;10193;48.884;9.182;2023-05-16T15:14:58;16.00;76.90
20066;DHT22;10193;48.884;9.182;2023-05-16T15:17:25;16.00;76.80
20066;DHT22;10193;48.884;9.182;2023-05-16T15:19:51;16.00;75.80
20066;DHT22;10193;48.884;9.182;2023-05-16T15:22:20;16.00;76.60
20066;DHT22;10193;48.884;9.182;2023-05-16T15:24:46;16.00;75.70
20066;DHT22;10193;48.884;9.182;2023-05-16T15:27:13;16.00;76.00
20066;DHT22;10193;48.884;9.182;2023-05-16T15:29:40;16.00;76.60
20066;DHT22;10193;48.884;9.182;2023-05-16T15:32:07;16.10;76.30
20066;DHT22;10193;48.884;9.182;2023-05-16T15:34:34;16.10;76.20